createdAt,value
2022-08-16T00:00:03.231Z,54.93
2022-08-16T00:02:57.962Z,55.08
2022-08-16T00:05:28.710Z,55.23
2022-08-16T00:08:05.687Z,55.12
2022-08-16T00:10:35.671Z,54.97
2022-08-16T00:13:07.491Z,55.23
2022-08-16T00:15:52.132Z,55.33
2022-08-16T00:18:29.541Z,55.31
2022-08-16T00:21:01.761Z,55.23
2022-08-16T00:23:34.497Z,55.34
2022-08-16T00:26:35.066Z,55.43
2022-08-16T00:28:59.365Z,55.43
2022-08-16T00:31:59.352Z,55.58
2022-08-16T00:34:22.518Z,55.15
2022-08-16T00:37:17.160Z,55.66
2022-08-16T00:39:57.147Z,55.59
2022-08-16T00:42:31.701Z,55.55
2022-08-16T00:45:08.420Z,55.75
2022-08-16T00:47:49.483Z,55.58
2022-08-16T00:50:21.764Z,55.75
2022-08-16T00:53:09.055Z,55.67
2022-08-16T00:55:43.782Z,55.29
2022-08-16T00:58:16.458Z,55.48
2022-08-16T01:01:08.345Z,55.37
2022-08-16T01:03:41.397Z,55.36
2022-08-16T01:06:39.780Z,55.65
2022-08-16T01:09:06.758Z,55.70
2022-08-16T01:11:53.865Z,55.72
2022-08-16T01:14:30.059Z,55.78
2022-08-16T01:17:01.983Z,55.74
2022-08-16T01:19:34.927Z,55.65
2022-08-16T01:22:47.606Z,55.53
2022-08-16T01:25:06.588Z,55.63
2022-08-16T01:27:44.317Z,55.43
2022-08-16T01:30:20.355Z,55.56
2022-08-16T01:33:15.026Z,55.61
2022-08-16T01:35:52.649Z,55.61
2022-08-16T01:38:28.308Z,55.97
2022-08-16T01:41:02.996Z,56.27
2022-08-16T01:43:35.248Z,56.84
2022-08-16T01:46:37.766Z,56.70
2022-08-16T01:49:00.102Z,56.77
2022-08-16T01:51:31.558Z,56.56
2022-08-16T01:54:02.349Z,56.16
2022-08-16T01:56:40.941Z,56.42
2022-08-16T01:59:15.696Z,56.09
2022-08-16T02:01:52.526Z,56.09
2022-08-16T02:04:49.190Z,56.00
2022-08-16T02:07:23.762Z,56.04
2022-08-16T02:09:57.148Z,56.14
2022-08-16T02:12:50.426Z,55.92
2022-08-16T02:15:25.193Z,56.33
2022-08-16T02:17:56.614Z,56.02
2022-08-16T02:20:27.794Z,56.15
2022-08-16T02:22:58.263Z,56.07
2022-08-16T02:25:52.708Z,56.39
2022-08-16T02:28:20.241Z,56.29
2022-08-16T02:30:54.175Z,56.21
2022-08-16T02:33:44.642Z,56.54
2022-08-16T02:36:42.450Z,56.45
2022-08-16T02:39:22.975Z,56.54
2022-08-16T02:41:53.863Z,56.53
2022-08-16T02:44:27.025Z,56.41
2022-08-16T02:46:58.057Z,56.50
2022-08-16T02:49:58.348Z,56.55
2022-08-16T02:52:24.682Z,56.34
2022-08-16T02:54:57.486Z,56.51
2022-08-16T02:57:27.596Z,56.63
2022-08-16T03:00:00.142Z,56.44
2022-08-16T03:02:33.247Z,56.33
2022-08-16T03:05:11.448Z,56.28
2022-08-16T03:07:44.034Z,56.39
2022-08-16T03:14:07.297Z,56.30
2022-08-16T03:16:58.628Z,56.09
2022-08-16T03:19:47.322Z,55.99
2022-08-16T03:22:28.287Z,56.19
2022-08-16T03:25:07.462Z,56.28
2022-08-16T03:27:41.158Z,56.20
2022-08-16T03:30:19.898Z,56.57
2022-08-16T03:32:56.638Z,56.24
2022-08-16T03:35:32.841Z,56.72
2022-08-16T03:38:32.559Z,56.64
2022-08-16T03:41:17.136Z,56.85
2022-08-16T03:43:55.767Z,56.90
2022-08-16T03:46:48.403Z,56.64
2022-08-16T03:49:20.272Z,56.89
2022-08-16T03:51:53.519Z,57.08
2022-08-16T03:54:30.896Z,57.10
2022-08-16T03:57:00.444Z,57.08
2022-08-16T03:59:31.519Z,57.09
2022-08-16T04:02:12.226Z,56.89
2022-08-16T04:04:55.290Z,57.11
2022-08-16T04:07:26.816Z,57.43
2022-08-16T04:10:36.397Z,57.70
2022-08-16T04:12:59.476Z,57.90
2022-08-16T04:15:34.874Z,57.84
2022-08-16T04:18:15.677Z,57.91
2022-08-16T04:20:46.256Z,57.94
2022-08-16T04:23:17.287Z,58.75
2022-08-16T04:25:47.846Z,58.69
2022-08-16T04:28:52.358Z,58.22
2022-08-16T04:31:10.765Z,58.35
2022-08-16T04:33:51.015Z,58.72
2022-08-16T04:36:26.194Z,58.39
2022-08-16T04:38:56.227Z,58.60
2022-08-16T04:41:32.592Z,59.17
2022-08-16T04:44:31.094Z,58.98
2022-08-16T04:47:00.674Z,58.87
2022-08-16T04:49:43.598Z,59.28
2022-08-16T04:52:34.647Z,59.25
2022-08-16T04:55:09.757Z,59.48
2022-08-16T04:57:42.845Z,59.49
2022-08-16T05:00:30.962Z,59.40
2022-08-16T05:03:21.980Z,59.61
2022-08-16T05:05:59.778Z,59.58
2022-08-16T05:08:38.210Z,59.92
2022-08-16T05:11:25.164Z,59.79
2022-08-16T05:14:06.918Z,59.64
2022-08-16T05:16:38.929Z,59.41
2022-08-16T05:19:13.316Z,59.68
2022-08-16T05:22:05.749Z,60.46
2022-08-16T05:24:40.369Z,60.30
2022-08-16T05:27:13.438Z,60.02
2022-08-16T05:29:59.244Z,59.97
2022-08-16T05:32:32.257Z,60.19
2022-08-16T05:35:07.783Z,60.18
2022-08-16T05:37:44.844Z,60.08
2022-08-16T05:40:18.627Z,60.04
2022-08-16T05:42:49.340Z,60.26
2022-08-16T05:45:22.160Z,60.12
2022-08-16T05:48:00.127Z,60.58
2022-08-16T05:50:53.017Z,60.68
2022-08-16T05:53:24.246Z,60.85
2022-08-16T05:56:19.458Z,60.94
2022-08-16T05:58:50.256Z,60.88
2022-08-16T06:01:20.489Z,60.98
2022-08-16T06:03:53.469Z,61.04
2022-08-16T06:06:34.602Z,61.00
2022-08-16T06:09:06.366Z,60.89
2022-08-16T06:11:39.853Z,61.27
2022-08-16T06:14:13.225Z,61.11
2022-08-16T06:16:50.560Z,61.21
2022-08-16T06:19:21.455Z,61.19
2022-08-16T06:22:02.295Z,61.07
2022-08-16T06:24:52.569Z,61.14
2022-08-16T06:27:24.667Z,61.11
2022-08-16T06:29:54.370Z,61.08
2022-08-16T06:32:27.158Z,61.41
2022-08-16T06:35:02.798Z,61.30
2022-08-16T06:37:37.442Z,61.36
2022-08-16T06:40:13.089Z,61.46
2022-08-16T06:42:57.185Z,61.30
2022-08-16T06:45:38.083Z,61.32
2022-08-16T06:48:18.907Z,61.47
2022-08-16T06:50:52.078Z,61.37
2022-08-16T06:53:22.888Z,61.69
2022-08-16T06:56:14.512Z,61.54
2022-08-16T06:59:10.877Z,61.35
2022-08-16T07:01:50.790Z,61.44
2022-08-16T07:04:33.359Z,61.57
2022-08-16T07:07:17.021Z,61.53
2022-08-16T07:09:46.130Z,61.56
2022-08-16T07:12:15.518Z,61.75
2022-08-16T07:14:49.104Z,61.50
2022-08-16T07:17:21.747Z,61.55
2022-08-16T07:20:29.877Z,61.43
2022-08-16T07:22:58.695Z,61.55
2022-08-16T07:25:46.282Z,61.64
2022-08-16T07:28:20.744Z,61.52
2022-08-16T07:30:57.578Z,61.64
2022-08-16T07:33:53.323Z,61.48
2022-08-16T07:36:31.764Z,61.26
2022-08-16T07:39:01.838Z,61.59
2022-08-16T07:41:36.874Z,61.37
2022-08-16T07:44:16.187Z,61.23
2022-08-16T07:46:55.445Z,61.27
2022-08-16T07:49:27.128Z,61.42
2022-08-16T07:52:18.690Z,61.05
2022-08-16T07:54:53.118Z,60.99
2022-08-16T07:57:24.238Z,61.42
2022-08-16T07:59:57.113Z,61.45
2022-08-16T08:02:28.512Z,61.11
2022-08-16T08:05:00.642Z,61.26
2022-08-16T08:07:34.046Z,61.12
2022-08-16T08:10:11.319Z,61.28
2022-08-16T08:12:42.082Z,61.40
2022-08-16T08:15:15.423Z,61.22
2022-08-16T08:17:56.652Z,61.34
2022-08-16T08:20:47.096Z,61.31
2022-08-16T08:23:30.507Z,61.09
2022-08-16T08:26:00.688Z,60.85
2022-08-16T08:28:32.266Z,60.93
2022-08-16T08:31:05.857Z,60.84
2022-08-16T08:33:43.778Z,60.96
2022-08-16T08:36:24.994Z,60.84
2022-08-16T08:39:12.869Z,61.08
2022-08-16T08:41:43.607Z,61.05
2022-08-16T08:44:28.323Z,61.08
2022-08-16T08:47:04.749Z,60.79
2022-08-16T08:49:46.529Z,60.71
2022-08-16T08:52:47.877Z,60.91
2022-08-16T08:55:13.593Z,60.56
2022-08-16T08:57:47.646Z,60.84
2022-08-16T09:00:51.222Z,60.56
2022-08-16T09:03:22.526Z,60.82
2022-08-16T09:05:54.282Z,60.69
2022-08-16T09:08:26.545Z,60.74
2022-08-16T09:11:07.479Z,60.62
2022-08-16T09:13:38.660Z,60.31
2022-08-16T09:17:01.109Z,60.36
2022-08-16T09:21:40.711Z,60.48
2022-08-16T09:24:11.704Z,60.42
2022-08-16T09:27:00.924Z,60.14
2022-08-16T09:29:44.366Z,60.10
2022-08-16T09:32:28.912Z,59.86
2022-08-16T09:35:01.616Z,60.22
2022-08-16T09:37:36.717Z,59.92
2022-08-16T09:40:31.863Z,59.68
2022-08-16T09:42:59.742Z,60.11
2022-08-16T09:45:30.223Z,60.00
2022-08-16T09:48:00.500Z,59.77
2022-08-16T09:50:37.076Z,59.79
2022-08-16T09:53:14.724Z,59.61
2022-08-16T09:55:48.978Z,59.39
2022-08-16T09:58:40.755Z,59.51
2022-08-16T10:01:11.286Z,59.07
2022-08-16T10:04:01.896Z,58.97
2022-08-16T10:06:33.882Z,59.19
2022-08-16T10:09:08.393Z,59.13
2022-08-16T10:12:11.435Z,58.78
2022-08-16T10:14:47.234Z,58.69
2022-08-16T10:17:17.228Z,58.49
2022-08-16T10:19:47.353Z,58.71
2022-08-16T10:22:22.919Z,58.50
2022-08-16T10:24:56.089Z,58.18
2022-08-16T10:27:45.744Z,58.40
2022-08-16T10:30:25.603Z,58.14
2022-08-16T10:32:58.423Z,58.21
2022-08-16T10:35:32.957Z,58.00
2022-08-16T10:38:02.697Z,58.14
2022-08-16T10:40:37.653Z,57.87
2022-08-16T10:43:08.368Z,58.09
2022-08-16T10:45:57.263Z,58.01
2022-08-16T10:48:31.210Z,57.71
2022-08-16T10:51:00.753Z,57.50
2022-08-16T10:53:34.065Z,57.55
2022-08-16T10:56:56.002Z,57.34
2022-08-16T10:59:29.645Z,57.10
2022-08-16T11:10:57.156Z,56.54
2022-08-16T11:16:25.686Z,56.33
2022-08-16T11:19:04.598Z,56.02
2022-08-16T11:21:37.668Z,55.89
2022-08-16T11:24:39.632Z,55.81
2022-08-16T11:27:23.323Z,56.16
2022-08-16T11:29:57.013Z,55.81
2022-08-16T11:32:31.621Z,55.79
2022-08-16T11:35:13.824Z,55.91
2022-08-16T11:38:46.948Z,55.74
2022-08-16T11:40:52.207Z,55.84
2022-08-16T11:43:26.585Z,55.85
2022-08-16T11:46:01.472Z,55.70
2022-08-16T11:48:50.890Z,55.67
2022-08-16T11:51:20.666Z,55.68
2022-08-16T11:53:49.620Z,55.58
2022-08-16T11:56:37.588Z,55.57
2022-08-16T11:59:12.788Z,55.30
2022-08-16T12:01:44.506Z,55.18
2022-08-16T12:04:28.671Z,55.18
2022-08-16T12:06:59.334Z,55.11
2022-08-16T12:09:29.676Z,55.21
2022-08-16T12:12:02.696Z,54.50
2022-08-16T12:14:35.223Z,54.92
2022-08-16T12:17:08.454Z,54.68
2022-08-16T12:19:38.296Z,54.64
2022-08-16T12:22:18.834Z,54.84
2022-08-16T12:24:51.870Z,54.80
2022-08-16T12:27:24.049Z,54.59
2022-08-16T12:29:53.786Z,54.59
2022-08-16T12:32:38.166Z,54.75
2022-08-16T12:35:13.335Z,54.52
2022-08-16T12:37:46.171Z,54.75
2022-08-16T12:40:24.536Z,54.68
2022-08-16T12:42:58.965Z,54.67
2022-08-16T12:45:30.894Z,54.32
2022-08-16T12:48:33.855Z,54.60
2022-08-16T12:51:05.065Z,54.36
2022-08-16T12:53:43.622Z,54.14
2022-08-16T12:56:13.866Z,54.24
2022-08-16T12:58:49.421Z,54.25
2022-08-16T13:01:22.409Z,54.16
2022-08-16T13:04:11.633Z,53.89
2022-08-16T13:06:45.689Z,53.90
2022-08-16T13:09:20.276Z,54.07
2022-08-16T13:12:00.283Z,54.08
2022-08-16T13:14:34.233Z,53.81
2022-08-16T13:17:06.728Z,53.41
2022-08-16T13:20:06.525Z,53.13
2022-08-16T13:22:27.956Z,53.51
2022-08-16T13:24:57.135Z,53.33
2022-08-16T13:27:34.914Z,53.48
2022-08-16T13:30:36.393Z,53.09
2022-08-16T13:33:11.499Z,53.44
2022-08-16T13:35:56.098Z,53.21
2022-08-16T13:38:37.131Z,53.14
2022-08-16T13:41:08.890Z,53.14
2022-08-16T13:43:38.985Z,53.14
2022-08-16T13:46:09.001Z,52.76
2022-08-16T13:48:43.933Z,52.93
2022-08-16T13:51:18.411Z,53.44
2022-08-16T13:53:54.406Z,53.67
2022-08-16T13:56:37.122Z,54.25
2022-08-16T13:59:19.341Z,54.28
2022-08-16T14:01:55.045Z,54.59
2022-08-16T14:04:27.721Z,54.68
2022-08-16T14:06:59.982Z,55.18
2022-08-16T14:09:30.150Z,54.56
2022-08-16T14:12:00.843Z,54.04
2022-08-16T14:14:31.542Z,53.76
2022-08-16T14:17:02.959Z,53.06
2022-08-16T14:19:32.132Z,51.86
2022-08-16T14:22:13.682Z,51.05
2022-08-16T14:24:46.978Z,50.54
2022-08-16T14:27:17.991Z,50.00
2022-08-16T14:29:49.413Z,49.80
2022-08-16T14:32:32.715Z,49.51
2022-08-16T14:35:04.290Z,49.49
2022-08-16T14:37:35.878Z,49.17
2022-08-16T14:40:06.063Z,49.31
2022-08-16T14:42:36.771Z,49.15
2022-08-16T14:45:07.605Z,49.25
2022-08-16T14:47:38.557Z,49.05
2022-08-16T14:50:09.931Z,48.72
2022-08-16T14:52:55.145Z,48.52
2022-08-16T14:55:26.478Z,48.60
2022-08-16T14:57:56.320Z,48.98
2022-08-16T15:00:32.853Z,48.46
2022-08-16T15:03:09.693Z,47.74
2022-08-16T15:05:40.927Z,46.05
2022-08-16T15:08:11.642Z,45.25
2022-08-16T15:10:42.796Z,43.21
2022-08-16T15:13:16.345Z,43.68
2022-08-16T15:15:56.318Z,44.00
2022-08-16T15:18:31.735Z,44.34
2022-08-16T15:21:02.458Z,44.53
2022-08-16T15:23:33.585Z,44.70
2022-08-16T15:26:08.493Z,45.22
2022-08-16T15:28:38.328Z,45.62
2022-08-16T15:31:09.721Z,45.91
2022-08-16T15:33:42.685Z,46.04
2022-08-16T15:36:18.299Z,46.61
2022-08-16T15:39:01.969Z,46.47
2022-08-16T15:41:58.224Z,47.18
2022-08-16T15:44:37.704Z,47.20
2022-08-16T15:47:16.448Z,47.46
2022-08-16T15:49:54.668Z,47.39
2022-08-16T15:52:29.953Z,47.55
2022-08-16T15:55:07.354Z,47.35
2022-08-16T15:57:42.622Z,47.44
2022-08-16T16:00:14.612Z,47.91
2022-08-16T16:02:45.268Z,47.77
2022-08-16T16:05:15.220Z,48.08
2022-08-16T16:07:56.531Z,48.10
2022-08-16T16:10:38.086Z,48.26
2022-08-16T16:13:09.546Z,48.77
2022-08-16T16:15:41.230Z,48.93
2022-08-16T16:18:12.091Z,49.00
2022-08-16T16:20:43.878Z,49.06
2022-08-16T16:23:14.062Z,49.35
2022-08-16T16:25:47.052Z,49.61
2022-08-16T16:29:05.821Z,49.75
2022-08-16T16:31:15.719Z,49.89
2022-08-16T16:33:47.887Z,49.90
2022-08-16T16:36:25.573Z,50.21
2022-08-16T16:38:58.520Z,50.21
2022-08-16T16:41:32.521Z,50.59
2022-08-16T16:44:02.869Z,50.52
2022-08-16T16:46:42.487Z,50.71
2022-08-16T16:49:14.708Z,51.07
2022-08-16T16:51:49.699Z,50.74
2022-08-16T16:54:27.949Z,50.77
2022-08-16T16:57:01.193Z,50.68
2022-08-16T16:59:29.522Z,50.55
2022-08-16T17:02:46.104Z,50.89
2022-08-16T17:04:50.093Z,50.80
2022-08-16T17:07:20.613Z,50.96
2022-08-16T17:09:53.694Z,51.15
2022-08-16T17:12:47.177Z,51.12
2022-08-16T17:15:14.935Z,50.88
2022-08-16T17:17:59.738Z,51.10
2022-08-16T17:20:31.452Z,51.10
2022-08-16T17:23:01.176Z,51.07
2022-08-16T17:25:36.418Z,51.15
2022-08-16T17:28:57.610Z,51.32
2022-08-16T17:30:58.579Z,51.28
2022-08-16T17:33:28.689Z,51.11
2022-08-16T17:36:08.667Z,51.20
2022-08-16T17:38:44.689Z,51.40
2022-08-16T17:41:16.326Z,51.21
2022-08-16T17:43:47.026Z,51.45
2022-08-16T17:46:51.211Z,51.32
2022-08-16T17:49:06.357Z,51.42
2022-08-16T17:51:35.563Z,51.23
2022-08-16T17:54:04.696Z,51.57
2022-08-16T17:56:34.292Z,51.44
2022-08-16T17:59:05.105Z,51.37
2022-08-16T18:01:34.313Z,51.45
2022-08-16T18:04:09.083Z,51.47
2022-08-16T18:06:39.791Z,51.64
2022-08-16T18:09:10.347Z,51.79
2022-08-16T18:11:41.086Z,51.86
2022-08-16T18:14:13.256Z,52.21
2022-08-16T18:16:43.004Z,52.65
2022-08-16T18:19:12.210Z,52.27
2022-08-16T18:21:59.701Z,52.52
2022-08-16T18:24:29.235Z,53.51
2022-08-16T18:27:25.315Z,53.38
2022-08-16T18:29:51.215Z,53.44
2022-08-16T18:32:24.445Z,53.48
2022-08-16T18:34:55.069Z,53.75
2022-08-16T18:37:25.017Z,53.96
2022-08-16T18:39:54.019Z,53.85
2022-08-16T18:42:27.276Z,54.28
2022-08-16T18:44:57.664Z,54.07
2022-08-16T18:47:26.871Z,54.32
2022-08-16T18:49:55.886Z,54.63
2022-08-16T18:52:26.013Z,54.88
2022-08-16T18:54:58.894Z,54.39
2022-08-16T18:57:43.215Z,54.60
2022-08-16T19:00:16.575Z,54.91
2022-08-16T19:02:58.174Z,55.06
2022-08-16T19:05:31.288Z,54.59
2022-08-16T19:08:01.743Z,54.41
2022-08-16T19:10:31.836Z,54.42
2022-08-16T19:13:05.722Z,54.96
2022-08-16T19:15:37.550Z,54.74
2022-08-16T19:18:07.007Z,54.68
2022-08-16T19:20:36.798Z,54.50
2022-08-16T19:23:09.947Z,54.39
2022-08-16T19:25:46.631Z,54.30
2022-08-16T19:28:49.131Z,54.39
2022-08-16T19:31:17.483Z,54.29
2022-08-16T19:33:54.466Z,54.74
2022-08-16T19:36:31.662Z,54.52
2022-08-16T19:39:06.000Z,54.47
2022-08-16T19:41:37.179Z,54.28
2022-08-16T19:44:08.980Z,54.50
2022-08-16T19:46:41.782Z,54.71
2022-08-16T19:49:15.959Z,54.82
2022-08-16T19:51:46.223Z,54.81
2022-08-16T19:54:15.149Z,54.71
2022-08-16T19:56:44.131Z,54.99
2022-08-16T19:59:19.739Z,55.41
2022-08-16T20:01:52.551Z,55.31
2022-08-16T20:04:23.085Z,55.95
2022-08-16T20:06:53.227Z,55.82
2022-08-16T20:09:23.355Z,56.30
2022-08-16T20:11:54.250Z,56.01
2022-08-16T20:14:26.454Z,55.96
2022-08-16T20:16:59.967Z,55.75
2022-08-16T20:19:32.603Z,55.46
2022-08-16T20:22:09.426Z,55.67
2022-08-16T20:24:38.865Z,56.18
2022-08-16T20:27:10.031Z,56.27
2022-08-16T20:29:41.217Z,56.10
2022-08-16T20:32:15.716Z,55.71
2022-08-16T20:34:46.414Z,56.19
2022-08-16T20:37:16.748Z,56.17
2022-08-16T20:39:47.462Z,56.55
2022-08-16T20:42:19.512Z,56.73
2022-08-16T20:44:48.760Z,56.85
2022-08-16T20:47:19.845Z,56.81
2022-08-16T20:49:50.147Z,57.19
2022-08-16T20:52:22.166Z,57.02
2022-08-16T20:54:51.787Z,57.26
2022-08-16T20:57:21.512Z,57.43
2022-08-16T20:59:50.524Z,57.85
2022-08-16T21:02:27.678Z,57.59
2022-08-16T21:04:57.179Z,57.57
2022-08-16T21:07:28.704Z,57.51
2022-08-16T21:09:57.946Z,57.78
2022-08-16T21:12:27.725Z,57.75
2022-08-16T21:15:07.326Z,57.46
2022-08-16T21:17:37.616Z,57.87
2022-08-16T21:20:11.504Z,57.91
2022-08-16T21:22:41.288Z,58.50
2022-08-16T21:25:13.170Z,58.41
2022-08-16T21:28:39.085Z,58.43
2022-08-16T21:30:33.306Z,58.25
2022-08-16T21:33:09.163Z,58.25
2022-08-16T21:35:39.319Z,58.89
2022-08-16T21:38:29.083Z,58.80
2022-08-16T21:40:59.192Z,58.80
2022-08-16T21:43:32.088Z,58.97
2022-08-16T21:46:02.170Z,58.88
2022-08-16T21:48:35.985Z,58.90
2022-08-16T21:51:07.475Z,58.95
2022-08-16T21:53:37.894Z,58.72
2022-08-16T21:56:09.854Z,58.87
2022-08-16T21:58:46.619Z,58.98
2022-08-16T22:01:23.873Z,59.04
2022-08-16T22:04:01.711Z,59.22
2022-08-16T22:06:44.697Z,59.12
2022-08-16T22:09:16.400Z,59.47
2022-08-16T22:11:46.086Z,59.79
2022-08-16T22:14:15.397Z,60.12
2022-08-16T22:16:44.339Z,59.49
2022-08-16T22:19:14.501Z,59.41
2022-08-16T22:21:43.674Z,59.84
2022-08-16T22:24:12.472Z,59.35
2022-08-16T22:26:43.539Z,60.03
2022-08-16T22:29:15.322Z,60.41
2022-08-16T22:31:45.195Z,60.24
2022-08-16T22:34:15.987Z,60.22
2022-08-16T22:36:45.182Z,59.73
2022-08-16T22:39:14.941Z,59.57
2022-08-16T22:41:45.681Z,59.99
2022-08-16T22:44:15.566Z,59.45
2022-08-16T22:46:44.919Z,59.56
2022-08-16T22:49:15.574Z,59.93
2022-08-16T22:51:44.523Z,59.96
2022-08-16T22:54:48.010Z,59.89
2022-08-16T22:57:03.229Z,60.30
2022-08-16T22:59:32.361Z,60.30
2022-08-16T23:02:03.372Z,60.38
2022-08-16T23:04:34.096Z,60.58
2022-08-16T23:07:03.677Z,60.34
2022-08-16T23:09:33.845Z,60.34
2022-08-16T23:12:07.306Z,60.29
2022-08-16T23:14:36.654Z,60.79
2022-08-16T23:17:05.793Z,60.69
2022-08-16T23:19:35.984Z,60.38
2022-08-16T23:22:06.032Z,60.44
2022-08-16T23:24:37.096Z,60.63
2022-08-16T23:27:15.142Z,61.01
2022-08-16T23:29:44.297Z,60.44
2022-08-16T23:32:14.403Z,61.04
2022-08-16T23:34:45.306Z,60.64
2022-08-16T23:37:14.405Z,60.46
2022-08-16T23:39:44.085Z,60.30
2022-08-16T23:42:15.464Z,60.67
2022-08-16T23:45:05.365Z,60.99
2022-08-16T23:47:34.777Z,61.36
2022-08-16T23:50:06.012Z,61.15
2022-08-16T23:52:53.299Z,61.38
2022-08-16T23:55:23.384Z,61.51
2022-08-16T23:57:52.851Z,61.26
